Time;durP1;ratioP1;P1;durP2;ratioP2;P2;SDS_P1;SDS_P2;PMS_P1;PMS_P2;Temp;Humidity;BMP_temperature;BMP_pressure;BME280_temperature;BME280_humidity;BME280_pressure;Samples;Min_cycle;Max_cycle;Signal;HPM_P1;HPM_P2
2022/05/12 00:00:49;;;;;;;13.52;8.45;;;17.20;99.90;;;;;;4937293;29;20035;-75
2022/05/12 00:03:16;;;;;;;12.68;7.82;;;17.20;99.90;;;;;;4936634;29;20039;-75
2022/05/12 00:05:42;;;;;;;15.02;8.90;;;17.10;99.90;;;;;;4936962;29;20495;-75
2022/05/12 00:08:09;;;;;;;11.15;8.40;;;17.00;99.90;;;;;;4936857;29;20035;-75
2022/05/12 00:10:35;;;;;;;17.23;8.32;;;17.10;99.90;;;;;;4936992;29;20023;-75
2022/05/12 00:13:00;;;;;;;11.32;8.32;;;17.10;99.90;;;;;;4927593;29;20067;-75
2022/05/12 00:15:31;;;;;;;12.23;7.70;;;17.00;99.90;;;;;;4925232;29;20052;-76
2022/05/12 00:17:57;;;;;;;13.57;8.98;;;17.00;99.90;;;;;;4917769;29;20029;-75
2022/05/12 00:20:24;;;;;;;12.80;9.27;;;16.90;99.90;;;;;;4917320;29;20103;-75
2022/05/12 00:22:50;;;;;;;12.63;8.43;;;16.80;99.90;;;;;;4917899;29;20048;-75
2022/05/12 00:25:20;;;;;;;12.90;8.50;;;16.70;99.90;;;;;;4917772;29;20373;-76
2022/05/12 00:27:47;;;;;;;14.40;8.90;;;16.70;99.90;;;;;;4917637;29;20548;-75
2022/05/12 00:30:13;;;;;;;16.00;8.68;;;16.80;99.90;;;;;;4917373;29;20031;-76
2022/05/12 00:32:42;;;;;;;10.65;8.23;;;16.60;99.90;;;;;;4918007;29;20124;-75
2022/05/12 00:35:10;;;;;;;13.90;7.97;;;16.60;99.90;;;;;;4917240;29;20380;-75
2022/05/12 00:37:35;;;;;;;10.18;7.50;;;16.60;99.90;;;;;;4917426;29;20145;-75
2022/05/12 00:40:02;;;;;;;11.98;7.70;;;16.60;99.90;;;;;;4917446;29;20058;-75
2022/05/12 00:42:28;;;;;;;12.82;7.35;;;16.40;99.90;;;;;;4916905;29;20168;-76
2022/05/12 00:44:53;;;;;;;13.27;8.07;;;16.40;99.90;;;;;;4917618;29;20103;-75
2022/05/12 00:47:19;;;;;;;9.88;7.75;;;16.30;99.90;;;;;;4915778;29;20043;-75
2022/05/12 00:49:46;;;;;;;11.38;8.10;;;16.40;99.90;;;;;;4916936;29;20148;-75
2022/05/12 00:52:20;;;;;;;11.93;8.18;;;16.40;99.90;;;;;;4917239;29;20028;-75
2022/05/12 00:55:02;;;;;;;13.13;8.30;;;16.30;99.90;;;;;;4917561;29;20020;-75
2022/05/12 00:57:31;;;;;;;14.63;8.38;;;16.30;99.90;;;;;;4929266;29;20078;-76
2022/05/12 00:59:58;;;;;;;11.45;8.68;;;16.20;99.90;;;;;;4936081;29;20046;-75
2022/05/12 01:02:26;;;;;;;12.65;8.18;;;16.20;99.90;;;;;;4934645;29;20027;-75
2022/05/12 01:04:56;;;;;;;11.43;7.85;;;16.30;99.90;;;;;;4935909;29;20032;-76
2022/05/12 01:07:22;;;;;;;12.70;7.90;;;16.20;99.90;;;;;;4935047;29;20035;-75
2022/05/12 01:09:47;;;;;;;11.65;7.63;;;16.20;99.90;;;;;;4917776;29;20027;-76
2022/05/12 01:12:13;;;;;;;11.32;7.88;;;16.20;99.90;;;;;;4916696;29;20401;-75
2022/05/12 01:14:39;;;;;;;11.15;7.43;;;16.10;99.90;;;;;;4934415;29;20028;-75
2022/05/12 01:17:05;;;;;;;12.93;7.25;;;16.10;99.90;;;;;;4935509;29;20036;-75
2022/05/12 01:19:35;;;;;;;13.88;6.80;;;16.10;99.90;;;;;;4935396;29;20070;-76
2022/05/12 01:22:03;;;;;;;12.80;7.03;;;16.10;99.90;;;;;;4934719;29;20063;-75
2022/05/12 01:24:35;;;;;;;11.65;6.90;;;16.10;99.90;;;;;;4930547;29;20031;-76
2022/05/12 01:27:18;;;;;;;11.98;6.43;;;16.10;99.90;;;;;;4935518;29;20031;-76
2022/05/12 01:29:46;;;;;;;11.38;6.63;;;16.10;99.90;;;;;;4921375;29;20028;-76
2022/05/12 01:32:11;;;;;;;10.35;6.65;;;16.10;99.90;;;;;;4916629;29;20484;-76
2022/05/12 01:34:37;;;;;;;11.18;6.63;;;16.10;99.90;;;;;;4916531;29;20048;-76
2022/05/12 01:37:03;;;;;;;9.98;6.32;;;16.10;99.90;;;;;;4916617;29;20028;-76
2022/05/12 01:39:28;;;;;;;7.93;6.40;;;16.10;99.90;;;;;;4916282;29;20028;-76
2022/05/12 01:41:54;;;;;;;11.52;6.57;;;16.10;99.90;;;;;;4935358;29;20032;-75
2022/05/12 01:44:20;;;;;;;7.20;5.90;;;16.10;99.90;;;;;;4920919;29;20130;-75
2022/05/12 01:46:45;;;;;;;11.93;6.63;;;16.10;99.90;;;;;;4915873;29;20467;-76
2022/05/12 01:49:11;;;;;;;13.68;6.63;;;16.10;99.90;;;;;;4916407;29;20024;-76
2022/05/12 01:51:38;;;;;;;14.32;6.35;;;16.00;99.90;;;;;;4916322;29;20032;-76
2022/05/12 01:54:04;;;;;;;8.52;5.25;;;16.00;99.90;;;;;;4916288;29;20060;-75
2022/05/12 01:56:30;;;;;;;9.70;5.88;;;16.00;99.90;;;;;;4916034;29;20508;-76
2022/05/12 01:58:55;;;;;;;14.07;6.85;;;16.00;99.90;;;;;;4916649;29;20036;-75
2022/05/12 02:01:21;;;;;;;11.30;6.78;;;16.00;99.90;;;;;;4915944;29;20404;-76
2022/05/12 02:03:47;;;;;;;13.65;5.82;;;16.00;99.90;;;;;;4916783;29;20028;-76
2022/05/12 02:06:13;;;;;;;13.15;6.30;;;15.90;99.90;;;;;;4916284;29;20043;-76
2022/05/12 02:08:38;;;;;;;10.52;5.95;;;16.00;99.90;;;;;;4928590;29;20031;-75
2022/05/12 02:11:04;;;;;;;9.98;5.75;;;16.00;99.90;;;;;;4934994;29;20075;-76
2022/05/12 02:13:30;;;;;;;8.55;5.15;;;16.00;99.90;;;;;;4935434;29;20047;-75
2022/05/12 02:15:57;;;;;;;9.65;5.80;;;16.00;99.90;;;;;;4916473;29;20032;-76
2022/05/12 02:18:24;;;;;;;7.78;5.70;;;16.10;99.90;;;;;;4916023;29;20036;-76
2022/05/12 02:20:50;;;;;;;9.18;5.65;;;16.10;99.90;;;;;;4916038;29;20060;-75
2022/05/12 02:23:16;;;;;;;8.00;5.40;;;16.10;99.90;;;;;;4916338;29;20032;-76
2022/05/12 02:25:42;;;;;;;9.85;5.30;;;16.10;99.90;;;;;;4915747;29;20024;-76
2022/05/12 02:28:08;;;;;;;8.73;5.40;;;16.00;99.90;;;;;;4916095;29;20407;-76
2022/05/12 02:30:34;;;;;;;10.60;5.57;;;16.00;99.90;;;;;;4915433;29;20035;-76
2022/05/12 02:33:00;;;;;;;12.40;5.95;;;15.90;99.90;;;;;;4934663;29;20703;-75
2022/05/12 02:35:27;;;;;;;11.13;5.43;;;15.90;99.90;;;;;;4934968;29;20036;-75
2022/05/12 02:37:52;;;;;;;11.05;6.05;;;15.90;99.90;;;;;;4934965;29;20092;-75
2022/05/12 02:40:21;;;;;;;8.38;6.00;;;15.90;99.90;;;;;;4934522;29;20035;-76
2022/05/12 02:42:47;;;;;;;14.60;5.75;;;15.90;99.90;;;;;;4934372;29;20519;-76
2022/05/12 02:45:13;;;;;;;10.73;5.82;;;16.00;99.90;;;;;;4934389;29;20062;-75
2022/05/12 02:47:39;;;;;;;11.18;5.93;;;16.10;99.90;;;;;;4923440;29;20393;-76
2022/05/12 02:50:06;;;;;;;11.38;5.90;;;16.10;99.90;;;;;;4916248;29;20048;-76
2022/05/12 02:52:32;;;;;;;12.45;5.35;;;15.90;99.90;;;;;;4928760;29;20032;-76
2022/05/12 02:54:57;;;;;;;9.35;5.57;;;16.00;99.90;;;;;;4934917;29;20031;-76
2022/05/12 02:57:23;;;;;;;7.78;5.80;;;15.90;99.90;;;;;;4935051;29;20456;-76
2022/05/12 02:59:49;;;;;;;11.45;6.10;;;16.00;99.90;;;;;;4937017;29;20027;-76
2022/05/12 03:02:14;;;;;;;11.00;6.07;;;16.10;99.90;;;;;;4931784;29;20074;-75
2022/05/12 03:04:40;;;;;;;8.27;5.22;;;16.10;99.90;;;;;;4919149;29;20036;-76
2022/05/12 03:07:06;;;;;;;10.52;5.22;;;16.10;99.90;;;;;;4917920;29;20040;-75
2022/05/12 03:09:32;;;;;;;10.65;5.47;;;15.90;99.90;;;;;;4919134;29;20035;-75
2022/05/12 03:11:57;;;;;;;12.30;4.85;;;15.90;99.90;;;;;;4918913;29;20361;-75
2022/05/12 03:14:23;;;;;;;7.65;5.13;;;15.90;99.90;;;;;;4918704;29;20034;-76
2022/05/12 03:16:52;;;;;;;12.65;5.88;;;15.90;99.90;;;;;;4919077;29;20075;-76
2022/05/12 03:19:20;;;;;;;12.25;5.65;;;15.90;99.90;;;;;;4918418;29;20365;-76
2022/05/12 03:21:46;;;;;;;11.85;5.40;;;15.90;99.90;;;;;;4918392;29;20044;-75
2022/05/12 03:24:13;;;;;;;12.80;5.97;;;15.80;99.90;;;;;;4936901;29;20044;-76
2022/05/12 03:26:38;;;;;;;11.80;5.10;;;15.90;99.90;;;;;;4937854;29;20502;-75
2022/05/12 03:29:04;;;;;;;7.88;5.38;;;16.00;99.90;;;;;;4937284;29;20036;-76
2022/05/12 03:31:30;;;;;;;12.27;4.85;;;16.00;99.90;;;;;;4937838;29;20031;-76
2022/05/12 03:33:56;;;;;;;10.70;5.43;;;15.90;99.90;;;;;;4928421;29;20032;-75
2022/05/12 03:36:22;;;;;;;10.40;5.50;;;15.90;99.90;;;;;;4929793;29;20086;-76
2022/05/12 03:38:48;;;;;;;11.63;5.10;;;15.90;99.90;;;;;;4937377;29;20046;-75
2022/05/12 03:41:14;;;;;;;8.98;5.25;;;16.00;99.90;;;;;;4937553;29;20495;-75
2022/05/12 03:46:24;;;;;;;10.52;5.53;;;16.00;99.90;;;;;;4926562;29;20040;-76
2022/05/12 03:48:51;;;;;;;11.13;5.70;;;16.10;99.90;;;;;;4918329;29;20056;-75
2022/05/12 03:51:17;;;;;;;8.68;5.25;;;16.10;99.90;;;;;;4918322;29;20036;-76
2022/05/12 03:53:43;;;;;;;11.05;4.68;;;16.10;99.90;;;;;;4918061;29;20028;-76
2022/05/12 03:56:09;;;;;;;9.05;4.55;;;16.00;99.90;;;;;;4918322;29;20122;-75
2022/05/12 03:58:36;;;;;;;7.80;4.28;;;16.00;99.90;;;;;;4917821;29;20028;-76
2022/05/12 04:01:04;;;;;;;9.32;5.18;;;15.90;99.90;;;;;;4918221;29;20072;-76
2022/05/12 04:03:29;;;;;;;9.57;5.65;;;15.80;99.90;;;;;;4918179;29;20047;-76
2022/05/12 04:05:59;;;;;;;9.45;4.85;;;16.00;99.90;;;;;;4918047;29;20368;-75
2022/05/12 04:08:25;;;;;;;9.25;4.70;;;16.10;99.90;;;;;;4917567;29;20396;-76
2022/05/12 04:10:51;;;;;;;10.77;5.45;;;16.10;99.90;;;;;;4921470;29;20114;-76
2022/05/12 04:13:17;;;;;;;11.27;5.55;;;16.20;99.90;;;;;;4936565;29;20537;-76
2022/05/12 04:15:43;;;;;;;9.27;4.90;;;16.20;99.90;;;;;;4936767;29;20055;-75
2022/05/12 04:18:09;;;;;;;8.50;4.65;;;16.20;99.90;;;;;;4937115;29;20036;-75
2022/05/12 04:20:36;;;;;;;9.93;5.07;;;16.20;99.90;;;;;;4936395;29;20042;-75
2022/05/12 04:23:03;;;;;;;9.25;5.03;;;16.20;99.90;;;;;;4927607;29;20040;-75
2022/05/12 04:25:30;;;;;;;7.70;4.63;;;16.20;99.90;;;;;;4918353;29;20028;-75
2022/05/12 04:27:55;;;;;;;8.23;4.93;;;16.20;99.90;;;;;;4936368;29;20028;-75
2022/05/12 04:30:24;;;;;;;8.02;5.35;;;16.10;99.90;;;;;;4936623;29;20030;-75
2022/05/12 04:32:50;;;;;;;8.05;4.72;;;16.20;99.90;;;;;;4936382;29;20024;-75
2022/05/12 04:35:17;;;;;;;6.90;4.55;;;16.20;99.90;;;;;;4936706;29;20502;-75
2022/05/12 04:37:54;;;;;;;7.47;5.35;;;16.20;99.90;;;;;;4936301;29;20030;-75
2022/05/12 04:40:21;;;;;;;8.30;5.32;;;16.10;99.90;;;;;;4934837;29;20022;-75
2022/05/12 04:42:49;;;;;;;10.85;5.63;;;16.20;99.90;;;;;;4927639;29;20133;-76
2022/05/12 04:45:16;;;;;;;10.13;5.22;;;16.20;99.90;;;;;;4931280;29;20103;-75
2022/05/12 04:47:43;;;;;;;8.45;5.07;;;16.20;99.90;;;;;;4918827;29;20111;-75
2022/05/12 04:50:12;;;;;;;12.00;5.50;;;16.10;99.90;;;;;;4936616;29;20546;-74
2022/05/12 04:52:38;;;;;;;7.72;5.50;;;16.10;99.90;;;;;;4922984;29;20031;-75
2022/05/12 04:55:04;;;;;;;9.60;5.72;;;16.10;99.90;;;;;;4942288;29;20020;-75
2022/05/12 04:57:41;;;;;;;8.98;5.47;;;16.00;99.90;;;;;;4916808;29;20028;-75
2022/05/12 05:00:13;;;;;;;13.23;5.72;;;16.00;99.90;;;;;;4917104;29;20104;-74
2022/05/12 05:02:39;;;;;;;12.30;5.57;;;16.10;99.90;;;;;;4916582;29;20036;-75
2022/05/12 05:05:05;;;;;;;10.30;6.32;;;16.20;99.90;;;;;;4931422;29;20028;-75
2022/05/12 05:07:31;;;;;;;12.48;5.55;;;16.30;99.90;;;;;;4940434;29;20368;-74
2022/05/12 05:09:57;;;;;;;13.60;5.55;;;16.20;99.90;;;;;;4915693;29;20111;-74
2022/05/12 05:12:22;;;;;;;8.38;5.60;;;16.30;99.90;;;;;;4916537;29;20413;-75
2022/05/12 05:14:48;;;;;;;8.70;5.30;;;16.30;99.90;;;;;;4916666;29;20460;-75
2022/05/12 13:52:42;;;;;;;15.63;6.55;;;24.90;91.30;;;;;;5905270;23;20133;-75
2022/05/12 13:55:18;;;;;;;21.20;4.82;;;24.90;90.60;;;;;;4954542;29;20111;-75
2022/05/12 13:58:05;;;;;;;17.48;4.85;;;24.80;91.40;;;;;;4952880;29;20075;-75
2022/05/12 14:00:40;;;;;;;15.20;4.55;;;24.70;90.80;;;;;;4946962;28;20379;-75
2022/05/12 14:03:18;;;;;;;17.00;4.78;;;24.40;91.50;;;;;;4954535;28;20065;-75
2022/05/12 14:05:45;;;;;;;20.48;4.63;;;24.40;91.50;;;;;;4954476;28;20023;-75
2022/05/12 14:08:26;;;;;;;17.98;5.10;;;24.40;92.50;;;;;;4953940;28;20027;-75
2022/05/12 14:11:00;;;;;;;16.95;4.72;;;24.50;92.10;;;;;;4954311;28;20102;-75
2022/05/12 14:19:19;;;;;;;23.77;4.88;;;24.60;90.40;;;;;;4954623;29;20038;-75
2022/05/12 14:21:53;;;;;;;16.13;3.90;;;24.70;86.50;;;;;;4953718;28;20031;-75
2022/05/12 14:24:21;;;;;;;18.45;4.20;;;24.20;86.90;;;;;;4953138;29;20035;-75
2022/05/12 14:26:47;;;;;;;20.58;4.32;;;24.10;87.60;;;;;;4953800;28;20110;-75
2022/05/12 14:29:14;;;;;;;22.02;4.05;;;24.40;89.30;;;;;;4954395;28;20031;-75
2022/05/12 14:31:42;;;;;;;12.43;3.65;;;24.30;87.40;;;;;;4954015;28;20027;-75
2022/05/12 14:34:08;;;;;;;16.05;4.65;;;24.30;86.40;;;;;;4952914;29;20027;-74
2022/05/12 14:36:35;;;;;;;13.63;4.05;;;24.40;87.90;;;;;;4953759;29;20143;-75
2022/05/12 14:39:01;;;;;;;13.00;4.22;;;24.30;88.10;;;;;;4954515;28;20475;-75
2022/05/12 14:41:27;;;;;;;13.75;4.07;;;24.50;87.40;;;;;;4954122;28;20035;-75
2022/05/12 14:43:53;;;;;;;9.05;4.05;;;24.70;87.90;;;;;;4953811;29;20063;-75
2022/05/12 14:46:22;;;;;;;13.05;4.68;;;24.90;86.30;;;;;;4953963;28;20055;-75
2022/05/12 14:48:51;;;;;;;14.32;3.78;;;25.30;85.80;;;;;;4954153;29;20036;-75
2022/05/12 14:51:20;;;;;;;13.80;3.95;;;24.90;85.80;;;;;;4953661;28;20098;-75
2022/05/12 14:53:45;;;;;;;12.20;3.78;;;25.00;87.20;;;;;;4962514;28;20078;-75
2022/05/12 14:56:11;;;;;;;11.85;3.85;;;24.80;86.90;;;;;;4996313;28;20046;-75
2022/05/12 14:58:37;;;;;;;11.77;3.80;;;24.90;87.80;;;;;;4996303;28;20034;-75
2022/05/12 15:01:07;;;;;;;11.55;4.40;;;25.00;87.50;;;;;;4994976;28;20037;-75
2022/05/12 15:03:35;;;;;;;19.30;3.55;;;25.00;85.90;;;;;;4996026;28;20034;-75
2022/05/12 15:06:02;;;;;;;17.45;3.95;;;25.30;86.10;;;;;;4995824;28;20030;-75
2022/05/12 15:08:28;;;;;;;16.63;3.83;;;25.00;83.80;;;;;;4983393;28;20430;-75
2022/05/12 15:10:54;;;;;;;15.85;4.10;;;25.10;83.00;;;;;;4976537;28;20023;-74
2022/05/12 15:13:20;;;;;;;13.90;4.03;;;25.20;85.10;;;;;;4976151;28;20038;-73
2022/05/12 15:15:47;;;;;;;12.52;4.32;;;25.00;83.20;;;;;;4975039;28;20027;-75
2022/05/12 15:18:13;;;;;;;15.63;4.55;;;25.20;84.30;;;;;;4976799;28;20505;-74
2022/05/12 15:20:39;;;;;;;17.77;4.63;;;25.00;83.90;;;;;;4975690;28;20055;-75
2022/05/12 15:23:05;;;;;;;12.50;3.92;;;25.10;85.90;;;;;;4976293;28;20026;-74
2022/05/12 15:25:31;;;;;;;16.35;3.95;;;24.90;84.00;;;;;;4976490;28;20027;-76
2022/05/12 15:27:57;;;;;;;16.00;4.35;;;25.10;85.30;;;;;;4976291;28;20522;-75
2022/05/12 15:30:24;;;;;;;14.68;4.13;;;24.90;85.30;;;;;;4976389;28;20065;-75
2022/05/12 15:32:52;;;;;;;17.27;4.45;;;24.80;86.30;;;;;;4975460;28;20034;-74
2022/05/12 15:35:17;;;;;;;18.48;4.50;;;24.80;86.20;;;;;;4976275;28;20494;-74
2022/05/12 15:37:43;;;;;;;12.65;3.72;;;24.90;86.00;;;;;;4975424;28;20045;-74
2022/05/12 15:40:12;;;;;;;15.65;4.47;;;25.00;87.40;;;;;;4975150;28;20031;-74
2022/05/12 15:42:39;;;;;;;14.85;4.15;;;24.90;87.50;;;;;;4974503;28;20158;-74
2022/05/12 15:45:05;;;;;;;13.05;4.38;;;24.80;88.40;;;;;;4974484;28;20027;-75
2022/05/12 15:47:40;;;;;;;10.02;4.10;;;24.60;88.90;;;;;;4974177;28;20025;-74
2022/05/12 15:50:18;;;;;;;11.63;3.88;;;24.60;88.80;;;;;;4974401;28;20363;-76
2022/05/12 15:52:43;;;;;;;19.40;4.65;;;24.70;87.90;;;;;;4974932;28;20053;-74
2022/05/12 15:55:09;;;;;;;18.77;4.43;;;24.80;88.40;;;;;;4975756;28;20019;-74
2022/05/12 15:57:35;;;;;;;15.02;4.10;;;24.60;88.70;;;;;;4975509;28;20029;-74
2022/05/12 16:00:03;;;;;;;17.90;4.47;;;24.50;87.90;;;;;;4975526;28;20033;-74
2022/05/12 16:02:29;;;;;;;13.93;3.83;;;24.70;88.20;;;;;;4975605;28;20023;-74
2022/05/12 16:04:54;;;;;;;14.93;4.13;;;24.80;87.60;;;;;;4975113;28;20085;-74
2022/05/12 16:07:20;;;;;;;17.38;4.45;;;24.60;87.70;;;;;;4973847;28;20478;-74
2022/05/12 16:09:46;;;;;;;12.95;3.60;;;24.40;86.00;;;;;;4974849;28;20014;-74
2022/05/12 16:14:49;;;;;;;20.50;4.30;;;24.20;89.30;;;;;;4975535;28;20026;-74
2022/05/12 16:17:15;;;;;;;16.75;4.63;;;24.10;87.70;;;;;;4974841;28;20031;-74
2022/05/12 16:19:40;;;;;;;14.18;4.57;;;23.90;86.60;;;;;;4974026;28;20435;-74
2022/05/12 16:22:07;;;;;;;14.82;4.30;;;23.90;88.30;;;;;;4975317;28;20046;-74
2022/05/12 16:24:33;;;;;;;30.23;4.97;;;23.80;88.10;;;;;;4974762;28;20513;-74
2022/05/12 16:27:02;;;;;;;17.05;3.97;;;24.00;89.50;;;;;;4974726;28;20035;-73
2022/05/12 16:29:36;;;;;;;25.33;4.70;;;24.00;87.70;;;;;;4973657;28;20378;-74
2022/05/12 16:32:02;;;;;;;18.30;4.68;;;23.90;88.10;;;;;;4974765;28;20022;-73
2022/05/12 16:34:28;;;;;;;19.25;4.50;;;23.80;88.70;;;;;;4975222;28;20086;-74
2022/05/12 16:36:54;;;;;;;14.35;3.58;;;23.80;86.50;;;;;;4974518;28;20478;-73
2022/05/12 16:39:21;;;;;;;15.73;4.55;;;23.90;85.50;;;;;;4974445;28;20085;-73
2022/05/12 16:41:47;;;;;;;17.40;3.60;;;23.90;87.00;;;;;;4974725;28;20037;-75
2022/05/12 16:44:12;;;;;;;16.33;4.07;;;23.70;84.10;;;;;;4974572;28;20054;-74
2022/05/12 16:46:38;;;;;;;16.60;3.97;;;23.60;83.30;;;;;;4974836;28;20066;-73
2022/05/12 16:49:04;;;;;;;11.73;3.80;;;23.60;84.30;;;;;;4974392;28;20030;-75
2022/05/12 16:51:30;;;;;;;15.07;3.83;;;23.50;83.30;;;;;;4974227;28;20475;-75
2022/05/12 16:53:56;;;;;;;12.05;4.03;;;23.40;83.60;;;;;;4973503;28;20454;-75
2022/05/12 16:56:21;;;;;;;14.15;4.22;;;23.40;85.10;;;;;;4981250;28;20109;-74
2022/05/12 16:58:47;;;;;;;13.45;3.15;;;23.30;82.10;;;;;;4973226;28;20031;-75
2022/05/12 17:01:13;;;;;;;13.88;3.83;;;23.30;81.20;;;;;;4973976;28;20035;-75
2022/05/12 17:03:38;;;;;;;19.67;3.17;;;23.20;80.20;;;;;;4973023;28;20035;-74
2022/05/12 17:06:05;;;;;;;11.45;3.58;;;23.20;81.80;;;;;;4973870;28;20027;-74
2022/05/12 17:08:32;;;;;;;14.40;3.38;;;23.30;81.10;;;;;;4973764;28;20022;-75
2022/05/12 17:11:01;;;;;;;12.93;3.38;;;23.20;80.30;;;;;;4974370;28;20030;-74
2022/05/12 17:13:28;;;;;;;12.02;3.13;;;23.20;81.50;;;;;;4973650;28;20019;-74
2022/05/12 17:15:54;;;;;;;14.20;3.78;;;23.20;81.50;;;;;;4972947;28;20035;-75
2022/05/12 17:18:20;;;;;;;10.85;3.33;;;23.20;81.60;;;;;;4974021;28;20382;-75
2022/05/12 17:20:46;;;;;;;10.55;3.35;;;23.10;82.80;;;;;;4974141;28;20035;-74
2022/05/12 17:23:12;;;;;;;15.38;3.72;;;23.00;83.20;;;;;;4973709;28;20027;-76
2022/05/12 17:25:37;;;;;;;12.52;3.60;;;23.00;83.70;;;;;;4972972;28;20030;-75
2022/05/12 17:28:03;;;;;;;12.32;4.10;;;23.10;82.50;;;;;;4973448;28;20467;-75
2022/05/12 17:30:29;;;;;;;15.75;3.75;;;23.10;83.00;;;;;;4973635;28;20035;-75
2022/05/12 17:32:55;;;;;;;9.75;3.50;;;23.10;82.40;;;;;;4972425;28;20109;-75
2022/05/12 17:35:20;;;;;;;15.48;3.53;;;23.00;82.10;;;;;;4972995;28;20035;-75
2022/05/12 17:37:47;;;;;;;11.70;3.47;;;23.00;84.20;;;;;;4973531;28;20061;-75
2022/05/12 17:40:13;;;;;;;12.07;3.50;;;22.90;83.90;;;;;;4972192;28;20029;-75
2022/05/12 17:42:43;;;;;;;18.27;4.63;;;22.80;85.10;;;;;;4983533;28;20023;-75
2022/05/12 17:45:12;;;;;;;13.18;3.45;;;22.80;84.00;;;;;;4973126;28;20078;-74
2022/05/12 17:47:38;;;;;;;14.15;3.40;;;22.80;84.70;;;;;;4973584;28;20038;-75
2022/05/12 17:50:05;;;;;;;11.45;3.08;;;22.80;86.90;;;;;;4972810;28;20482;-74
2022/05/12 17:52:31;;;;;;;16.38;3.58;;;22.50;82.90;;;;;;4972204;28;20030;-75
2022/05/12 17:54:56;;;;;;;8.40;2.83;;;22.60;86.30;;;;;;4972864;28;20027;-75
2022/05/12 17:57:22;;;;;;;18.55;6.18;;;22.60;85.60;;;;;;4978552;28;20193;-74
2022/05/12 17:59:48;;;;;;;12.93;3.60;;;22.60;86.50;;;;;;4992684;28;20124;-75
2022/05/12 18:02:13;;;;;;;11.00;3.50;;;22.50;84.50;;;;;;4974401;28;20166;-75
2022/05/12 18:04:39;;;;;;;13.40;3.58;;;22.50;86.10;;;;;;4972983;28;20043;-74
2022/05/12 18:07:07;;;;;;;13.93;3.28;;;22.50;86.90;;;;;;4971921;28;20022;-72
2022/05/12 18:09:34;;;;;;;13.73;3.35;;;22.40;88.30;;;;;;4972833;28;20031;-73
2022/05/12 18:12:00;;;;;;;12.05;3.22;;;22.30;88.50;;;;;;4974095;28;20027;-74
2022/05/12 18:14:27;;;;;;;12.57;3.10;;;22.20;87.80;;;;;;4972297;28;20022;-74
2022/05/12 18:16:53;;;;;;;16.13;3.38;;;22.10;85.20;;;;;;4973823;28;20034;-76
2022/05/12 18:19:19;;;;;;;13.60;4.18;;;22.10;87.30;;;;;;4973395;28;20027;-76
2022/05/12 18:21:45;;;;;;;13.95;3.28;;;22.10;88.80;;;;;;4971876;28;20386;-75
2022/05/12 18:24:10;;;;;;;10.98;2.90;;;22.00;89.00;;;;;;4973251;28;20042;-75
2022/05/12 18:26:40;;;;;;;16.58;3.55;;;21.90;88.00;;;;;;4973242;28;20031;-76
2022/05/12 18:29:09;;;;;;;15.05;3.83;;;21.80;89.30;;;;;;4973169;28;20062;-75
2022/05/12 18:31:37;;;;;;;14.55;3.45;;;21.80;90.30;;;;;;4976876;28;20099;-74
2022/05/12 18:34:04;;;;;;;16.95;3.60;;;21.70;90.00;;;;;;4976685;28;20073;-74
2022/05/12 18:36:29;;;;;;;13.90;3.70;;;21.60;90.60;;;;;;4976814;28;20102;-73
2022/05/12 18:38:55;;;;;;;15.10;3.53;;;21.50;90.60;;;;;;4977737;28;20062;-75
2022/05/12 18:41:21;;;;;;;9.48;3.17;;;21.50;91.20;;;;;;4976318;28;20019;-76
2022/05/12 18:43:48;;;;;;;9.18;3.65;;;21.40;90.90;;;;;;4976968;28;20035;-74
2022/05/12 18:46:14;;;;;;;10.90;3.25;;;21.30;90.80;;;;;;4974630;28;20414;-76
2022/05/12 18:48:40;;;;;;;42.85;4.82;;;21.30;90.80;;;;;;4976466;28;20530;-75
2022/05/12 18:51:06;;;;;;;13.55;3.42;;;21.20;90.20;;;;;;4975340;28;20109;-75
2022/05/12 18:53:32;;;;;;;20.58;4.60;;;21.20;90.90;;;;;;4976333;28;20399;-75
2022/05/12 18:55:58;;;;;;;17.63;4.28;;;21.20;91.10;;;;;;4975613;28;20062;-75
2022/05/12 18:58:24;;;;;;;25.75;7.43;;;21.10;91.80;;;;;;4976125;28;20035;-74
2022/05/12 19:00:50;;;;;;;19.65;5.47;;;21.10;92.00;;;;;;4976630;28;20027;-75
2022/05/12 19:03:17;;;;;;;16.23;4.18;;;20.90;92.80;;;;;;4977011;28;20049;-75
2022/05/12 19:05:43;;;;;;;19.48;4.18;;;20.80;93.20;;;;;;4976645;28;20033;-75
2022/05/12 19:08:10;;;;;;;12.80;3.47;;;20.70;92.00;;;;;;4976498;28;20455;-75
2022/05/12 19:10:37;;;;;;;13.88;4.07;;;20.70;92.70;;;;;;4975214;28;20026;-75
2022/05/12 19:13:04;;;;;;;7.50;3.03;;;20.60;93.10;;;;;;4976688;28;20030;-75
2022/05/12 19:15:31;;;;;;;14.05;3.80;;;20.60;93.50;;;;;;4976394;28;20429;-75
2022/05/12 19:17:59;;;;;;;8.05;3.10;;;20.50;94.00;;;;;;4976067;28;20411;-75
2022/05/12 19:20:34;;;;;;;10.63;3.10;;;20.40;93.90;;;;;;4976541;28;20482;-75
2022/05/12 19:23:00;;;;;;;9.35;3.38;;;20.30;93.80;;;;;;4976437;28;20105;-76
2022/05/12 19:25:27;;;;;;;17.00;3.85;;;20.30;93.90;;;;;;4974249;28;20042;-75
2022/05/12 19:27:53;;;;;;;9.05;3.33;;;20.20;93.70;;;;;;4976052;28;20031;-76
2022/05/12 19:30:23;;;;;;;11.38;3.45;;;20.00;94.20;;;;;;4975893;28;20094;-75
2022/05/12 19:32:49;;;;;;;8.98;3.35;;;20.00;92.90;;;;;;4975524;28;20117;-75
2022/05/12 19:35:16;;;;;;;16.27;4.35;;;19.90;92.90;;;;;;4976115;28;20110;-76
2022/05/12 19:37:43;;;;;;;15.27;3.80;;;19.80;92.80;;;;;;4975880;28;20026;-77
2022/05/12 19:40:17;;;;;;;14.52;3.67;;;19.90;92.10;;;;;;4974813;28;20026;-76
2022/05/12 19:42:43;;;;;;;10.95;3.30;;;19.90;92.40;;;;;;4975598;28;20113;-76
2022/05/12 19:45:10;;;;;;;20.35;3.70;;;19.80;91.90;;;;;;4975401;28;20054;-76
2022/05/12 19:47:37;;;;;;;14.13;3.47;;;19.90;91.60;;;;;;4973398;28;20035;-76
2022/05/12 19:50:03;;;;;;;9.68;3.65;;;19.90;91.60;;;;;;4974700;28;20034;-76
2022/05/12 19:52:29;;;;;;;15.25;3.75;;;19.90;91.60;;;;;;4974503;28;20019;-76
2022/05/12 19:54:55;;;;;;;15.90;3.60;;;19.80;91.70;;;;;;4974991;28;20027;-76
2022/05/12 19:57:21;;;;;;;15.50;3.42;;;19.70;91.60;;;;;;4973772;28;20034;-76
2022/05/12 19:59:47;;;;;;;12.55;4.20;;;19.70;91.80;;;;;;4975163;28;20097;-76
2022/05/12 20:02:14;;;;;;;17.38;4.20;;;19.60;91.90;;;;;;4975551;28;20074;-80
2022/05/12 20:04:40;;;;;;;9.50;3.38;;;19.60;91.90;;;;;;4975762;28;20082;-77
2022/05/12 20:07:07;;;;;;;10.48;3.88;;;19.60;92.10;;;;;;4975583;28;20034;-76
2022/05/12 20:09:33;;;;;;;11.93;3.53;;;19.50;92.10;;;;;;4975447;28;20046;-76
2022/05/12 20:11:58;;;;;;;19.73;4.43;;;19.50;92.10;;;;;;4974873;28;20133;-76
2022/05/12 20:14:24;;;;;;;16.25;4.03;;;19.40;92.40;;;;;;4974762;28;20026;-76
2022/05/12 20:16:56;;;;;;;11.15;3.67;;;19.40;92.30;;;;;;4974755;28;20395;-76
2022/05/12 20:19:27;;;;;;;14.35;4.15;;;19.30;92.50;;;;;;4980994;28;20026;-76
2022/05/12 20:21:56;;;;;;;11.35;3.55;;;19.30;92.90;;;;;;4974799;28;20045;-76
2022/05/12 20:24:23;;;;;;;10.82;3.30;;;19.00;93.60;;;;;;4981751;28;20102;-76
2022/05/12 20:26:49;;;;;;;12.52;3.67;;;18.90;94.10;;;;;;4974778;28;20050;-76
2022/05/12 20:29:15;;;;;;;16.08;3.33;;;18.90;94.20;;;;;;4974659;28;20150;-76
2022/05/12 20:31:41;;;;;;;12.88;4.00;;;18.90;94.80;;;;;;4975185;28;20054;-76
2022/05/12 20:34:07;;;;;;;20.83;3.70;;;18.90;94.90;;;;;;4975040;28;20466;-76
2022/05/12 20:36:34;;;;;;;9.40;3.70;;;18.90;95.10;;;;;;4974969;28;20046;-76
2022/05/12 20:39:00;;;;;;;16.23;3.85;;;18.80;95.10;;;;;;4974068;28;20113;-76
2022/05/12 20:41:26;;;;;;;10.73;3.72;;;18.80;95.50;;;;;;4974439;28;20074;-76
2022/05/12 20:43:52;;;;;;;15.75;4.15;;;18.70;94.30;;;;;;4974785;28;20030;-77
2022/05/12 20:46:18;;;;;;;14.38;4.18;;;18.60;94.80;;;;;;4974490;28;20027;-76
2022/05/12 20:48:47;;;;;;;10.25;3.63;;;18.50;95.30;;;;;;4974661;28;20030;-76
2022/05/12 20:51:13;;;;;;;13.95;4.10;;;18.50;95.10;;;;;;4974712;28;20026;-76
2022/05/12 20:53:41;;;;;;;12.85;3.33;;;18.40;94.80;;;;;;4974361;28;20049;-76
2022/05/12 20:56:13;;;;;;;13.63;3.83;;;18.40;94.40;;;;;;4974854;28;20031;-76
2022/05/12 20:58:39;;;;;;;10.90;3.30;;;18.40;94.20;;;;;;4974179;28;20034;-76
2022/05/12 21:01:05;;;;;;;16.45;3.50;;;18.40;94.50;;;;;;4974679;28;20353;-76
2022/05/12 21:03:32;;;;;;;16.20;3.83;;;18.30;94.90;;;;;;4973981;28;20034;-76
2022/05/12 21:05:58;;;;;;;14.63;3.80;;;18.10;95.20;;;;;;4974421;28;20031;-76
2022/05/12 21:08:27;;;;;;;12.38;3.42;;;18.00;95.70;;;;;;4974043;28;20030;-76
2022/05/12 21:10:53;;;;;;;12.70;3.70;;;18.10;95.70;;;;;;4974408;28;20059;-76
2022/05/12 21:13:19;;;;;;;15.07;3.63;;;18.10;95.20;;;;;;4973994;28;20058;-76
2022/05/12 21:15:45;;;;;;;16.20;3.83;;;18.20;95.40;;;;;;4973427;28;20038;-76
2022/05/12 21:18:11;;;;;;;14.65;4.20;;;18.20;95.50;;;;;;4974260;28;20030;-76
2022/05/12 21:20:49;;;;;;;11.82;4.00;;;18.10;96.10;;;;;;4974382;28;20027;-76
2022/05/12 21:23:16;;;;;;;9.82;3.60;;;18.00;96.00;;;;;;4974167;28;20019;-76